createdAt,value
2023-02-11T00:09:34.357Z,68.22
2023-02-11T00:58:36.407Z,69.34
2023-02-11T01:10:06.413Z,69.79
2023-02-11T01:40:17.243Z,70.79
2023-02-11T01:57:46.047Z,71.06
2023-02-11T02:10:24.027Z,71.64
2023-02-11T03:13:08.373Z,73.20
2023-02-11T03:18:06.964Z,72.83
2023-02-11T08:32:58.981Z,76.96
2023-02-11T10:24:09.431Z,77.80
2023-02-11T10:42:30.891Z,77.32
2023-02-11T10:47:48.060Z,77.80
2023-02-11T11:05:23.237Z,78.07
2023-02-11T13:42:03.524Z,78.55
2023-02-11T13:47:06.981Z,78.97
2023-02-11T13:52:07.685Z,79.01
2023-02-11T13:57:56.754Z,79.09
2023-02-11T14:22:44.904Z,78.80
2023-02-11T14:34:59.098Z,78.57
2023-02-11T14:46:36.715Z,78.88
2023-02-11T15:41:36.142Z,78.20
2023-02-11T15:52:46.315Z,78.54
2023-02-11T15:58:35.388Z,78.54
2023-02-11T16:03:39.028Z,78.40
2023-02-11T16:09:02.104Z,78.53
2023-02-11T16:14:25.589Z,78.33
2023-02-11T16:19:25.987Z,78.53
2023-02-11T16:24:51.593Z,78.48
2023-02-11T16:29:49.750Z,78.64
2023-02-11T16:34:47.362Z,78.26
2023-02-11T16:39:47.769Z,78.27
2023-02-11T17:09:49.062Z,78.73
2023-02-11T17:46:18.906Z,78.70
2023-02-11T17:51:31.503Z,78.46
2023-02-11T17:56:34.362Z,78.97
2023-02-11T18:01:34.793Z,78.95
2023-02-11T18:06:36.258Z,78.97
2023-02-11T18:11:34.013Z,79.01
2023-02-11T18:16:40.226Z,78.69
2023-02-11T18:21:37.566Z,78.88
2023-02-11T18:26:40.340Z,78.73
2023-02-11T18:31:40.035Z,78.94
2023-02-11T18:36:37.042Z,78.92
2023-02-11T18:41:33.703Z,78.73
2023-02-11T18:46:33.643Z,78.99
2023-02-11T18:51:36.395Z,78.67
2023-02-11T18:56:34.922Z,78.75
2023-02-11T19:01:33.882Z,79.14
2023-02-11T19:06:36.225Z,78.99
2023-02-11T19:11:49.361Z,78.94
2023-02-11T19:16:47.209Z,79.34
2023-02-11T19:21:48.281Z,78.91
2023-02-11T19:27:00.096Z,78.96
2023-02-11T19:37:10.685Z,79.37
2023-02-11T19:42:07.280Z,79.41
2023-02-11T19:47:04.466Z,78.94
2023-02-11T19:52:05.999Z,78.86
2023-02-11T19:57:08.401Z,79.25
2023-02-11T20:02:05.039Z,79.46
2023-02-11T20:07:03.911Z,79.37
2023-02-11T20:12:00.545Z,79.49
2023-02-11T20:17:02.422Z,79.54
2023-02-11T20:22:32.301Z,79.19
2023-02-11T20:27:32.245Z,79.56
2023-02-11T20:32:34.218Z,78.97
2023-02-11T20:37:30.868Z,79.15
2023-02-11T20:42:33.373Z,79.21
2023-02-11T20:47:31.102Z,79.16
2023-02-11T20:52:30.842Z,78.95
2023-02-11T20:57:28.229Z,78.89
2023-02-11T21:02:27.431Z,79.23
2023-02-11T21:07:24.208Z,78.89
2023-02-11T21:12:20.708Z,78.88
2023-02-11T21:17:17.672Z,78.69
2023-02-11T21:22:15.108Z,78.71
2023-02-11T21:27:15.723Z,79.01
2023-02-11T21:32:12.359Z,79.10
2023-02-11T21:37:12.069Z,79.21
2023-02-11T21:42:16.494Z,79.31
2023-02-11T21:52:41.310Z,78.95
2023-02-11T21:57:44.272Z,79.25
2023-02-11T22:02:42.260Z,78.94
2023-02-11T22:07:56.030Z,79.29
2023-02-11T22:13:24.623Z,79.27
2023-02-11T22:24:51.046Z,79.40
2023-02-11T22:47:30.507Z,78.93
2023-02-11T22:52:32.297Z,78.99
2023-02-11T22:57:30.639Z,79.07
2023-02-11T23:08:09.176Z,79.38
2023-02-11T23:25:08.394Z,79.30
2023-02-11T23:36:03.844Z,79.43
2023-02-11T23:41:00.443Z,79.46
2023-02-11T23:51:30.289Z,79.00
2023-02-11T23:56:27.884Z,78.91
